Time;durP1;ratioP1;P1;durP2;ratioP2;P2;SDS_P1;SDS_P2;PMS_P1;PMS_P2;Temp;Humidity;BMP_temperature;BMP_pressure;BME280_temperature;BME280_humidity;BME280_pressure;Samples;Min_cycle;Max_cycle;Signal;HPM_P1;HPM_P2
2021/12/04 15:34:42;;;;;;;4.03;0.63;;;;;;;4.57;100.00;99027.63;5110293;27;20418;-49
2021/12/04 15:37:09;;;;;;;6.82;0.47;;;;;;;4.47;100.00;99031.59;5095683;28;20626;-48
2021/12/04 15:39:39;;;;;;;6.53;0.30;;;;;;;4.57;100.00;99038.13;5095947;28;20140;-48
2021/12/04 15:53:01;;;;;;;10.02;3.20;;;;;;;4.01;100.00;99052.88;5052415;28;20040;-50
2021/12/04 15:55:34;;;;;;;6.30;0.57;;;;;;;4.01;100.00;99056.28;5073951;28;20489;-52
2021/12/04 15:58:05;;;;;;;6.75;1.80;;;;;;;4.03;100.00;99059.56;5086394;28;20048;-50
2021/12/04 16:00:33;;;;;;;3.90;1.48;;;;;;;3.94;100.00;99068.50;5087614;28;20028;-47
2021/12/04 16:03:01;;;;;;;7.32;1.02;;;;;;;3.80;100.00;99072.78;5089455;28;20040;-47
2021/12/04 16:05:31;;;;;;;3.60;0.35;;;;;;;3.90;100.00;99077.75;5088689;28;20035;-49
2021/12/04 16:08:15;;;;;;;6.25;1.30;;;;;;;3.82;100.00;99073.41;5088306;28;20038;-51
2021/12/04 16:10:44;;;;;;;2.95;1.25;;;;;;;3.81;100.00;99074.38;5083451;28;20222;-48
2021/12/04 16:13:11;;;;;;;4.88;0.95;;;;;;;3.67;100.00;99070.78;5086256;28;20126;-46
2021/12/04 16:15:37;;;;;;;2.75;0.90;;;;;;;3.59;100.00;99083.97;5092659;28;20027;-47
2021/12/04 16:18:04;;;;;;;2.53;0.20;;;;;;;3.54;100.00;99082.88;5088336;28;20539;-48
2021/12/04 16:20:30;;;;;;;1.95;0.15;;;;;;;3.41;100.00;99088.75;5090432;28;20374;-46
2021/12/04 16:22:58;;;;;;;7.20;0.57;;;;;;;3.44;100.00;99078.72;5095564;28;20961;-50
2021/12/04 16:25:31;;;;;;;2.25;0.40;;;;;;;3.37;100.00;99082.22;5098174;28;20311;-49
2021/12/04 16:30:55;;;;;;;2.83;0.20;;;;;;;3.43;100.00;99079.72;5064666;28;20040;-47
2021/12/04 16:36:22;;;;;;;1.65;0.55;;;;;;;3.44;100.00;99076.09;5084459;28;20237;-52
2021/12/04 16:38:50;;;;;;;6.00;0.68;;;;;;;3.26;100.00;99076.44;5074996;28;20036;-50
2021/12/04 16:41:16;;;;;;;0.98;0.47;;;;;;;3.26;100.00;99081.66;5084132;28;20036;-48
2021/12/04 16:43:45;;;;;;;5.05;0.90;;;;;;;3.27;100.00;99082.47;5083760;28;20036;-49
2021/12/04 16:46:14;;;;;;;6.43;0.43;;;;;;;3.33;100.00;99092.28;5076175;28;20035;-47
2021/12/04 16:48:48;;;;;;;0.47;0.40;;;;;;;3.27;100.00;99080.66;5083274;28;20089;-45
2021/12/04 16:56:46;;;;;;;4.03;1.60;;;;;;;3.52;100.00;99069.97;5081955;28;20097;-46
2021/12/04 16:59:15;;;;;;;4.28;0.73;;;;;;;3.43;100.00;99071.03;5084719;28;20484;-48
2021/12/04 17:01:44;;;;;;;2.90;1.13;;;;;;;3.34;100.00;99069.50;5077161;28;20553;-49
2021/12/04 17:04:13;;;;;;;1.73;0.30;;;;;;;3.33;100.00;99079.16;5080596;28;20031;-45
2021/12/04 17:06:41;;;;;;;3.42;0.77;;;;;;;3.34;100.00;99078.16;5080985;28;20442;-53
2021/12/04 17:09:06;;;;;;;10.07;3.13;;;;;;;3.42;100.00;99064.97;5076964;28;20360;-49
2021/12/04 17:11:32;;;;;;;6.03;2.10;;;;;;;3.43;100.00;99057.91;5058872;28;20024;-47
2021/12/04 17:13:57;;;;;;;2.63;1.45;;;;;;;3.45;100.00;99058.56;5084266;28;20119;-47
2021/12/04 17:16:27;;;;;;;5.00;1.05;;;;;;;3.45;100.00;99061.19;5079988;28;20087;-48
2021/12/04 17:19:12;;;;;;;2.55;0.43;;;;;;;3.38;100.00;99071.59;5075743;28;20043;-46
2021/12/04 17:21:39;;;;;;;1.92;0.45;;;;;;;3.32;100.00;99068.84;5073114;28;20047;-47
2021/12/04 17:24:08;;;;;;;1.30;0.30;;;;;;;3.12;100.00;99071.97;5071801;28;20028;-49
2021/12/04 17:26:33;;;;;;;1.48;1.13;;;;;;;3.09;100.00;99064.47;5071213;28;20024;-48
2021/12/04 17:28:59;;;;;;;2.50;0.35;;;;;;;3.00;100.00;99065.53;5057767;28;20480;-49
2021/12/04 17:31:25;;;;;;;1.42;0.63;;;;;;;3.04;100.00;99061.56;5077322;28;20032;-48
2021/12/04 17:33:56;;;;;;;2.67;0.10;;;;;;;3.17;100.00;99074.06;5082588;28;20051;-54
2021/12/04 17:36:22;;;;;;;;;;;;;;;3.32;100.00;99080.13;5079335;28;20036;-49
2021/12/04 17:38:48;;;;;;;2.28;0.98;;;;;;;3.35;100.00;99094.69;5079521;28;19922;-48
2021/12/04 17:41:16;;;;;;;2.35;0.32;;;;;;;3.51;100.00;99089.28;5078772;28;20028;-50
2021/12/04 17:43:42;;;;;;;4.07;0.43;;;;;;;3.48;100.00;99084.41;5075903;28;20118;-50
2021/12/04 17:46:10;;;;;;;3.67;0.63;;;;;;;3.32;100.00;99079.34;5075399;28;20509;-50
2021/12/04 17:48:36;;;;;;;2.53;0.50;;;;;;;3.16;100.00;99081.09;5074771;28;20395;-51
2021/12/04 17:51:02;;;;;;;4.75;1.90;;;;;;;3.13;100.00;99071.00;5081340;28;20036;-49
2021/12/04 17:53:29;;;;;;;5.47;1.02;;;;;;;3.17;100.00;99084.53;5080393;28;20469;-48
2021/12/04 17:55:55;;;;;;;6.07;1.30;;;;;;;3.14;100.00;99088.31;5080173;28;20035;-50
2021/12/04 17:58:20;;;;;;;12.77;4.38;;;;;;;3.03;100.00;99088.75;5059696;28;20037;-51
2021/12/04 18:00:50;;;;;;;8.00;1.50;;;;;;;3.03;100.00;99086.13;5080822;28;20044;-46
2021/12/04 18:03:20;;;;;;;7.50;1.88;;;;;;;2.98;100.00;99089.28;5048419;28;20028;-49
2021/12/04 18:05:48;;;;;;;6.47;0.98;;;;;;;3.04;100.00;99099.03;5081924;28;20092;-49
2021/12/04 18:08:14;;;;;;;9.27;1.27;;;;;;;3.08;100.00;99093.47;5079361;28;20032;-49
2021/12/04 18:10:41;;;;;;;7.05;1.50;;;;;;;3.09;100.00;99095.91;5079783;28;20519;-50
2021/12/04 18:13:14;;;;;;;5.18;2.08;;;;;;;3.04;100.00;99098.22;5077454;28;20391;-48
2021/12/04 18:15:45;;;;;;;9.93;1.58;;;;;;;2.85;100.00;99094.28;5078538;28;20028;-49
2021/12/04 18:18:11;;;;;;;4.13;0.80;;;;;;;2.72;100.00;99094.06;5077539;28;20472;-52
2021/12/04 18:20:38;;;;;;;7.82;1.00;;;;;;;2.70;100.00;99091.59;5078506;28;20064;-50
2021/12/04 18:23:04;;;;;;;9.20;1.35;;;;;;;2.69;100.00;99102.25;5074380;28;20036;-45
2021/12/04 18:25:30;;;;;;;2.55;0.25;;;;;;;2.89;100.00;99094.75;5078990;28;20111;-47
2021/12/04 18:27:57;;;;;;;8.40;1.85;;;;;;;3.00;100.00;99091.72;5080816;28;20036;-47
2021/12/04 18:30:25;;;;;;;4.80;2.05;;;;;;;2.93;100.00;99093.41;5081292;28;20160;-45
2021/12/04 18:32:51;;;;;;;4.43;1.70;;;;;;;2.97;100.00;99087.66;5076693;28;20036;-46
2021/12/04 18:35:18;;;;;;;6.13;1.77;;;;;;;2.97;100.00;99082.41;5081265;28;20031;-47
2021/12/04 18:37:44;;;;;;;5.43;1.13;;;;;;;2.95;100.00;99075.72;5077759;28;20024;-48
2021/12/04 18:40:15;;;;;;;6.00;1.65;;;;;;;3.01;100.00;99093.34;5078557;28;20491;-47
2021/12/04 18:42:41;;;;;;;2.80;1.43;;;;;;;3.01;100.00;99082.88;5076420;28;20428;-46
2021/12/04 18:45:09;;;;;;;1.83;0.55;;;;;;;3.02;100.00;99082.72;5074708;28;20028;-48
2021/12/04 18:47:35;;;;;;;1.95;0.17;;;;;;;2.97;100.00;99079.81;5057478;28;20518;-47
2021/12/04 18:50:01;;;;;;;6.28;1.00;;;;;;;2.91;100.00;99084.91;5074759;28;20031;-48
2021/12/04 18:52:26;;;;;;;1.83;0.47;;;;;;;2.84;100.00;99083.00;5079627;28;20054;-50
2021/12/04 18:54:52;;;;;;;0.70;0.65;;;;;;;2.96;100.00;99088.63;5078261;28;20089;-49
2021/12/04 18:57:18;;;;;;;1.75;0.30;;;;;;;2.94;100.00;99089.78;5077655;28;20650;-49
2021/12/04 18:59:45;;;;;;;0.60;0.20;;;;;;;3.01;100.00;99103.81;5072984;28;20031;-53
2021/12/04 19:02:19;;;;;;;11.73;1.25;;;;;;;2.98;100.00;99088.47;5061030;28;20516;-48
2021/12/04 19:04:46;;;;;;;1.40;0.50;;;;;;;2.94;100.00;99087.97;5078474;28;20036;-48
2021/12/04 19:07:12;;;;;;;0.85;0.20;;;;;;;2.95;100.00;99088.81;5079761;28;20115;-50
2021/12/04 19:09:38;;;;;;;6.63;1.10;;;;;;;2.78;100.00;99094.16;5079823;28;20021;-50
2021/12/04 19:12:05;;;;;;;4.22;0.20;;;;;;;2.72;100.00;99080.97;5075110;28;20079;-51
2021/12/04 19:14:32;;;;;;;2.53;0.10;;;;;;;2.71;100.00;99087.19;5081045;28;20028;-51
2021/12/04 19:16:59;;;;;;;1.23;0.17;;;;;;;2.81;100.00;99087.75;5076300;28;20036;-47
2021/12/04 19:19:26;;;;;;;1.42;0.28;;;;;;;2.86;100.00;99079.38;5071183;28;20039;-50
2021/12/04 19:21:52;;;;;;;2.95;0.75;;;;;;;2.87;100.00;99081.03;5077253;28;20032;-51
2021/12/04 19:24:19;;;;;;;1.58;0.55;;;;;;;3.01;100.00;99081.06;5073906;28;20388;-49
2021/12/04 19:26:45;;;;;;;3.90;0.85;;;;;;;2.98;100.00;99093.69;5077109;28;20028;-55
2021/12/04 19:29:16;;;;;;;2.40;0.73;;;;;;;3.11;100.00;99088.69;5074399;28;20361;-50
2021/12/04 19:31:44;;;;;;;2.10;0.22;;;;;;;3.21;100.00;99075.34;5073765;28;20105;-54
2021/12/04 19:34:21;;;;;;;3.25;0.47;;;;;;;3.13;100.00;99078.84;5072989;28;20039;-49
2021/12/04 19:50:46;;;;;;;4.57;1.02;;;;;;;3.45;100.00;99063.81;5080631;28;20097;-53
2021/12/04 19:55:44;;;;;;;2.83;0.40;;;;;;;3.50;100.00;99074.56;5069571;28;20024;-51
2021/12/04 19:58:10;;;;;;;4.28;0.17;;;;;;;3.65;100.00;99051.78;5052628;28;20486;-50
2021/12/04 20:00:56;;;;;;;0.32;0.22;;;;;;;3.76;100.00;99055.75;5068606;28;20111;-51
2021/12/04 20:03:38;;;;;;;5.88;1.55;;;;;;;3.72;100.00;99057.13;5069273;28;20046;-50
2021/12/04 20:06:35;;;;;;;1.48;0.82;;;;;;;3.72;100.00;99055.31;5073663;28;20047;-48
2021/12/04 20:09:11;;;;;;;2.33;0.75;;;;;;;3.69;100.00;99066.19;5069276;28;20480;-48
2021/12/04 20:14:23;;;;;;;4.32;0.32;;;;;;;3.80;100.00;99056.22;5074492;28;20128;-53
2021/12/04 20:16:48;;;;;;;5.53;0.35;;;;;;;3.84;100.00;99058.28;5059115;28;20028;-51
2021/12/04 20:19:14;;;;;;;2.63;0.15;;;;;;;3.86;100.00;99058.94;5079924;28;20024;-50
2021/12/04 20:21:49;;;;;;;4.18;1.75;;;;;;;3.86;100.00;99061.53;5079089;28;20024;-54
2021/12/04 20:24:16;;;;;;;0.65;0.30;;;;;;;3.88;100.00;99051.69;5078672;28;20036;-53
2021/12/04 20:26:50;;;;;;;5.15;1.52;;;;;;;3.89;100.00;99063.00;5074641;28;20028;-50
2021/12/04 20:39:54;;;;;;;2.53;0.05;;;;;;;3.88;100.00;99053.50;5085911;28;20032;-47
2021/12/04 21:49:43;;;;;;;3.88;0.32;;;;;;;3.23;100.00;99102.19;5084392;28;21178;-49
2021/12/04 21:52:12;;;;;;;2.45;0.30;;;;;;;3.13;100.00;99107.66;5081245;28;20068;-49
2021/12/04 21:54:39;;;;;;;4.68;1.52;;;;;;;3.08;100.00;99125.72;5072708;28;20043;-46
2021/12/04 22:10:46;;;;;;;1.25;0.08;;;;;;;2.68;100.00;99147.72;5082656;28;20058;-46
2021/12/04 22:16:06;;;;;;;4.93;0.68;;;;;;;2.62;100.00;99152.66;5081260;28;20040;-50
2021/12/04 22:26:56;;;;;;;0.80;0.80;;;;;;;2.57;100.00;99173.28;5089517;28;20503;-49
2021/12/04 22:56:51;;;;;;;1.85;0.00;;;;;;;2.34;100.00;99211.66;5079032;28;20586;-45
2021/12/04 22:59:18;;;;;;;0.43;0.00;;;;;;;2.30;100.00;99219.03;5079392;28;20518;-46
2021/12/04 23:01:49;;;;;;;0.82;0.47;;;;;;;2.25;100.00;99197.00;5076797;28;20024;-49
2021/12/04 23:13:06;;;;;;;2.47;0.00;;;;;;;2.21;100.00;99220.03;5008278;28;20129;-48
2021/12/04 23:15:50;;;;;;;0.08;0.00;;;;;;;2.20;100.00;99209.75;5084282;28;20039;-45
2021/12/04 23:18:41;;;;;;;0.10;0.00;;;;;;;2.15;100.00;99195.38;5079755;28;20050;-46
